METAR Data
IDs: Format: Raw Decoded Include TAF

Data at: 1224 UTC 23 Jun 2021

METAR for:KFPK (Charotte/Beach Fld, MI, US)
Text:KFPK 231215Z AUTO 14005KT 7SM DZ OVC090 14/11 A3008 RMK AO2 T01380105
Temperature: 13.8°C ( 57°F)
Dewpoint: 10.5°C ( 51°F) [RH = 80%]
Pressure (altimeter):30.08 inches Hg (1018.7 mb)
Winds:from the SE (140 degrees) at 6 MPH (5 knots; 2.6 m/s)
Visibility: 7 sm ( 11 km)
Ceiling:9000 feet AGL
Clouds: overcast cloud deck at 9000 feet AGL
Weather:DZ (moderate drizzle)
QC Flag:automated observation with no human augmentation

TAF for:KFPK (Charotte/Beach Fld, MI, US)
Text:No data found

METAR for:KLAN (Lansing/Capital City, MI, US)
Text:KLAN 231153Z 16004KT 10SM BKN065 OVC090 14/09 A3010 RMK AO2 SLP192 60001 70009 T01390089 10139 20089 51012 $
Temperature: 13.9°C ( 57°F)
Dewpoint: 8.9°C ( 48°F) [RH = 72%]
Pressure (altimeter):30.10 inches Hg (1019.4 mb) [Sea level pressure: 1019.2 mb]
Winds:from the SSE (160 degrees) at 5 MPH (4 knots; 2.1 m/s)
Visibility:10 or more sm (16+ km)
Ceiling:6500 feet AGL
Clouds: broken clouds at 6500 feet AGL, overcast cloud deck at 9000 feet AGL
QC Flag:SOME DATA ABOVE MAY BE INACCURATE!!!"$" is an indication the sensor requires maintenance.

TAF for:KLAN (Lansing/Capital City, MI, US) issued at 1140 UTC 23 Jun 2021
Text:KLAN 231140Z 2312/2412 15006KT P6SM VCSH BKN070
Forecast period:1200 to 1600 UTC 23 June 2021
Forecast type:FROM: standard forecast or significant change
Winds:from the SSE (150 degrees) at 7 MPH (6 knots; 3.1 m/s)
Visibility:6 or more sm (10+ km)
Ceiling:7000 feet AGL
Clouds: broken clouds at 7000 feet AGL
Weather:VCSH (showers in vicinity)
Text:FM231600 19012G22KT P6SM VCSH BKN040
Forecast period:1600 to 1900 UTC 23 June 2021
Forecast type:FROM: standard forecast or significant change
Winds:from the S (190 degrees) at 14 MPH (12 knots; 6.2 m/s) gusting to 25 MPH (22 knots; 11.3 m/s)
Visibility:6 or more sm (10+ km)
Ceiling:4000 feet AGL
Clouds: broken clouds at 4000 feet AGL
Weather:VCSH (showers in vicinity)
Text:FM231900 20011G22KT P6SM -SHRA BKN035
Forecast period:1900 UTC 23 June 2021 to 0000 UTC 24 June 2021
Forecast type:FROM: standard forecast or significant change
Winds:from the SSW (200 degrees) at 13 MPH (11 knots; 5.7 m/s) gusting to 25 MPH (22 knots; 11.3 m/s)
Visibility:6 or more sm (10+ km)
Ceiling:3500 feet AGL
Clouds: broken clouds at 3500 feet AGL
Weather:-SHRA (light rain showers)
Text:FM240000 19010KT P6SM BKN040
Forecast period:0000 to 1200 UTC 24 June 2021
Forecast type:FROM: standard forecast or significant change
Winds:from the S (190 degrees) at 12 MPH (10 knots; 5.1 m/s)
Visibility:6 or more sm (10+ km)
Ceiling:4000 feet AGL
Clouds: broken clouds at 4000 feet AGL